createdAt,value
2022-11-19T00:01:26.566Z,15.52
2022-11-19T00:03:54.263Z,16.15
2022-11-19T00:06:26.640Z,15.35
2022-11-19T00:08:55.109Z,15.88
2022-11-19T00:11:46.102Z,14.80
2022-11-19T00:14:15.411Z,14.93
2022-11-19T00:16:44.221Z,16.15
2022-11-19T00:19:11.592Z,13.63
2022-11-19T00:21:38.605Z,16.35
2022-11-19T00:24:06.059Z,13.68
2022-11-19T00:26:33.152Z,16.10
2022-11-19T00:29:00.264Z,16.77
2022-11-19T00:31:27.300Z,13.40
2022-11-19T00:33:54.953Z,14.70
2022-11-19T00:36:22.976Z,16.35
2022-11-19T00:38:50.033Z,13.90
2022-11-19T00:41:17.014Z,15.38
2022-11-19T00:43:52.783Z,14.48
2022-11-19T00:46:24.001Z,14.85
2022-11-19T00:48:52.958Z,14.85
2022-11-19T00:51:21.897Z,16.90
2022-11-19T00:53:49.747Z,14.43
2022-11-19T00:56:19.372Z,15.18
2022-11-19T00:58:47.498Z,15.55
2022-11-19T01:01:16.223Z,15.75
2022-11-19T01:03:45.446Z,14.75
2022-11-19T01:06:18.867Z,14.25
2022-11-19T01:08:47.394Z,15.18
2022-11-19T01:11:16.987Z,14.38
2022-11-19T01:13:44.115Z,14.25
2022-11-19T01:16:20.981Z,14.85
2022-11-19T01:18:49.964Z,16.77
2022-11-19T01:21:18.712Z,16.33
2022-11-19T01:23:46.385Z,13.75
2022-11-19T01:26:14.726Z,15.15
2022-11-19T01:28:42.600Z,15.80
2022-11-19T01:31:11.709Z,14.20
2022-11-19T01:33:39.371Z,15.60
2022-11-19T01:36:09.022Z,14.43
2022-11-19T01:38:36.019Z,15.50
2022-11-19T01:41:03.701Z,15.40
2022-11-19T01:43:42.587Z,16.10
2022-11-19T01:46:11.863Z,15.70
2022-11-19T01:48:49.112Z,16.52
2022-11-19T01:51:28.654Z,17.33
2022-11-19T01:54:01.623Z,15.60
2022-11-19T01:56:29.841Z,17.27
2022-11-19T01:59:07.447Z,16.55
2022-11-19T02:01:34.664Z,16.77
2022-11-19T02:04:03.567Z,15.13
2022-11-19T02:06:31.382Z,16.45
2022-11-19T02:08:59.561Z,15.13
2022-11-19T02:11:45.153Z,16.10
2022-11-19T02:14:15.134Z,15.35
2022-11-19T02:17:03.599Z,15.43
2022-11-19T02:20:04.228Z,16.40
2022-11-19T02:22:31.121Z,15.07
2022-11-19T02:25:10.088Z,16.17
2022-11-19T02:27:58.428Z,17.10
2022-11-19T02:30:25.971Z,18.42
2022-11-19T02:33:00.829Z,15.75
2022-11-19T02:35:59.477Z,15.50
2022-11-19T02:38:40.937Z,15.25
2022-11-19T02:41:36.070Z,16.30
2022-11-19T02:44:29.402Z,17.80
2022-11-19T02:46:58.279Z,17.00
2022-11-19T02:49:30.878Z,15.40
2022-11-19T02:52:00.614Z,14.52
2022-11-19T02:54:28.637Z,14.15
2022-11-19T02:57:00.789Z,15.35
2022-11-19T02:59:57.582Z,17.50
2022-11-19T03:02:48.568Z,15.02
2022-11-19T03:05:21.085Z,14.27
2022-11-19T03:07:48.752Z,15.38
2022-11-19T03:10:18.139Z,13.82
2022-11-19T03:12:57.287Z,15.50
2022-11-19T03:16:06.226Z,12.95
2022-11-19T03:18:47.702Z,13.15
2022-11-19T03:21:28.381Z,12.82
2022-11-19T03:24:01.297Z,13.40
2022-11-19T03:26:30.487Z,12.63
2022-11-19T03:29:01.847Z,13.80
2022-11-19T03:31:30.075Z,12.95
2022-11-19T03:34:00.435Z,11.30
2022-11-19T03:36:32.376Z,13.68
2022-11-19T03:39:06.542Z,12.02
2022-11-19T03:41:36.311Z,13.15
2022-11-19T03:44:31.865Z,10.98
2022-11-19T03:47:04.548Z,13.13
2022-11-19T03:49:37.077Z,12.43
2022-11-19T03:52:12.072Z,11.77
2022-11-19T03:54:40.339Z,13.40
2022-11-19T03:57:09.459Z,13.05
2022-11-19T03:59:36.658Z,11.93
2022-11-19T04:02:08.241Z,12.02
2022-11-19T04:04:38.372Z,11.18
2022-11-19T04:07:08.800Z,11.90
2022-11-19T04:09:36.041Z,12.07
2022-11-19T04:12:03.879Z,12.90
2022-11-19T04:14:30.973Z,10.90
2022-11-19T04:16:58.098Z,10.43
2022-11-19T04:19:25.164Z,11.90
2022-11-19T04:21:52.440Z,12.77
2022-11-19T04:24:19.513Z,12.18
2022-11-19T04:26:46.662Z,12.15
2022-11-19T04:29:13.691Z,11.18
2022-11-19T04:31:40.711Z,11.65
2022-11-19T04:34:07.708Z,11.45
2022-11-19T04:36:35.602Z,12.60
2022-11-19T04:39:02.602Z,12.63
2022-11-19T04:41:29.576Z,12.50
2022-11-19T04:43:56.562Z,11.48
2022-11-19T04:46:23.533Z,11.63
2022-11-19T04:48:50.475Z,11.77
2022-11-19T04:51:17.462Z,11.55
2022-11-19T04:53:44.548Z,13.60
2022-11-19T04:56:11.581Z,11.25
2022-11-19T04:58:38.588Z,11.65
2022-11-19T05:01:05.727Z,11.73
2022-11-19T05:03:33.059Z,11.25
2022-11-19T05:06:00.037Z,11.45
2022-11-19T05:08:27.001Z,10.73
2022-11-19T05:10:54.063Z,10.13
2022-11-19T05:13:21.082Z,10.38
2022-11-19T05:15:48.241Z,11.55
2022-11-19T05:18:15.221Z,9.35
2022-11-19T05:20:42.321Z,9.20
2022-11-19T05:23:09.341Z,9.30
2022-11-19T05:25:36.323Z,10.27
2022-11-19T05:28:03.392Z,10.30
2022-11-19T05:30:30.308Z,10.75
2022-11-19T05:32:57.418Z,10.15
2022-11-19T05:35:24.483Z,10.15
2022-11-19T05:37:51.766Z,9.25
2022-11-19T05:40:19.739Z,9.30
2022-11-19T05:42:46.752Z,8.57
2022-11-19T05:45:14.045Z,9.45
2022-11-19T05:47:44.705Z,12.38
2022-11-19T05:50:15.338Z,10.23
2022-11-19T05:52:42.339Z,8.43
2022-11-19T05:55:09.537Z,9.73
2022-11-19T05:57:37.416Z,10.43
2022-11-19T06:00:05.773Z,8.95
2022-11-19T06:02:32.718Z,9.25
2022-11-19T06:04:59.758Z,9.80
2022-11-19T06:07:26.739Z,10.05
2022-11-19T06:09:53.772Z,9.02
2022-11-19T06:12:20.732Z,10.80
2022-11-19T06:14:47.782Z,10.07
2022-11-19T06:17:14.794Z,10.05
2022-11-19T06:19:41.842Z,9.80
2022-11-19T06:22:10.255Z,9.85
2022-11-19T06:24:37.177Z,9.55
2022-11-19T06:27:04.255Z,9.60
2022-11-19T06:29:31.344Z,8.43
2022-11-19T06:31:58.286Z,10.02
2022-11-19T06:34:25.312Z,8.35
2022-11-19T06:36:52.328Z,9.23
2022-11-19T06:39:20.027Z,8.93
2022-11-19T06:41:49.096Z,8.43
2022-11-19T06:44:16.111Z,9.10
2022-11-19T06:46:43.097Z,9.35
2022-11-19T06:49:13.173Z,7.55
2022-11-19T06:51:41.285Z,8.27
2022-11-19T06:54:08.230Z,8.23
2022-11-19T06:56:35.177Z,9.55
2022-11-19T06:59:02.113Z,8.60
2022-11-19T07:01:29.076Z,9.63
2022-11-19T07:03:56.084Z,9.15
2022-11-19T07:06:23.003Z,10.85
2022-11-19T07:08:49.972Z,10.68
2022-11-19T07:11:25.958Z,11.73
2022-11-19T07:13:57.353Z,12.68
2022-11-19T07:16:26.570Z,10.95
2022-11-19T07:18:53.856Z,12.40
2022-11-19T07:21:20.955Z,13.05
2022-11-19T07:23:47.917Z,12.45
2022-11-19T07:26:15.205Z,11.30
2022-11-19T07:28:42.306Z,9.60
2022-11-19T07:31:09.909Z,12.50
2022-11-19T07:33:39.278Z,9.23
2022-11-19T07:36:09.306Z,9.77
2022-11-19T07:38:38.623Z,11.00
2022-11-19T07:41:26.317Z,11.55
2022-11-19T07:43:53.283Z,12.15
2022-11-19T07:46:20.657Z,11.25
2022-11-19T07:48:47.626Z,11.50
2022-11-19T07:51:14.604Z,10.60
2022-11-19T07:53:42.949Z,8.27
2022-11-19T07:56:09.982Z,8.00
2022-11-19T07:58:37.044Z,7.82
2022-11-19T08:01:17.932Z,10.18
2022-11-19T08:03:50.589Z,9.77
2022-11-19T08:06:21.268Z,9.95
2022-11-19T08:08:48.685Z,10.35
2022-11-19T08:11:16.754Z,9.13
2022-11-19T08:13:44.201Z,8.82
2022-11-19T08:16:14.025Z,10.57
2022-11-19T08:18:40.987Z,14.25
2022-11-19T08:21:10.454Z,11.32
2022-11-19T08:23:39.173Z,9.52
2022-11-19T08:26:09.450Z,10.25
2022-11-19T08:28:36.438Z,9.10
2022-11-19T08:31:10.379Z,9.18
2022-11-19T08:33:37.411Z,8.90
2022-11-19T08:36:04.749Z,9.25
2022-11-19T08:38:37.223Z,8.90
2022-11-19T08:41:24.137Z,9.15
2022-11-19T08:43:51.092Z,9.85
2022-11-19T08:46:18.103Z,10.40
2022-11-19T08:48:45.188Z,9.73
2022-11-19T08:51:15.594Z,8.20
2022-11-19T08:53:42.771Z,9.70
2022-11-19T08:56:15.334Z,8.40
2022-11-19T08:58:46.249Z,8.05
2022-11-19T09:01:15.909Z,7.35
2022-11-19T09:03:43.425Z,6.75
2022-11-19T09:06:11.280Z,8.75
2022-11-19T09:08:41.157Z,7.22
2022-11-19T09:11:17.504Z,7.60
2022-11-19T09:13:45.740Z,7.80
2022-11-19T09:16:13.062Z,6.97
2022-11-19T09:18:42.268Z,7.50
2022-11-19T09:21:11.854Z,7.28
2022-11-19T09:23:39.714Z,5.90
2022-11-19T09:26:15.706Z,7.35
2022-11-19T09:28:43.689Z,6.63
2022-11-19T09:31:16.928Z,7.15
2022-11-19T09:33:47.976Z,7.47
2022-11-19T09:36:16.102Z,7.00
2022-11-19T09:38:43.573Z,6.07
2022-11-19T09:41:32.882Z,7.60
2022-11-19T09:44:02.610Z,6.30
2022-11-19T09:46:50.286Z,6.78
2022-11-19T09:49:27.850Z,6.07
2022-11-19T09:52:01.671Z,6.35
2022-11-19T09:54:28.804Z,6.35
2022-11-19T09:57:04.369Z,7.00
2022-11-19T09:59:40.509Z,7.25
2022-11-19T10:02:19.277Z,7.47
2022-11-19T10:04:48.098Z,7.53
2022-11-19T10:07:40.958Z,8.60
2022-11-19T10:10:35.645Z,7.32
2022-11-19T10:13:27.343Z,6.95
2022-11-19T10:15:57.415Z,7.20
2022-11-19T10:18:46.473Z,7.10
2022-11-19T10:21:24.854Z,7.07
2022-11-19T10:24:18.764Z,6.75
2022-11-19T10:27:07.229Z,6.90
2022-11-19T10:29:38.241Z,6.90
2022-11-19T10:32:29.740Z,8.10
2022-11-19T10:35:02.451Z,8.73
2022-11-19T10:37:35.794Z,9.30
2022-11-19T10:40:19.176Z,9.57
2022-11-19T10:42:52.988Z,8.50
2022-11-19T10:45:25.618Z,7.30
2022-11-19T10:48:14.929Z,7.75
2022-11-19T10:50:42.602Z,8.68
2022-11-19T10:53:29.520Z,8.65
2022-11-19T10:56:06.089Z,7.40
2022-11-19T10:58:40.622Z,7.63
2022-11-19T11:01:32.010Z,7.88
2022-11-19T11:04:08.228Z,7.93
2022-11-19T11:07:00.564Z,8.07
2022-11-19T11:09:34.832Z,9.15
2022-11-19T11:12:29.212Z,7.40
2022-11-19T11:15:07.745Z,7.82
2022-11-19T11:17:36.685Z,8.18
2022-11-19T11:20:09.134Z,8.25
2022-11-19T11:22:36.523Z,7.78
2022-11-19T11:25:07.371Z,8.23
2022-11-19T11:27:36.087Z,6.85
2022-11-19T11:30:11.970Z,7.55
2022-11-19T11:32:40.834Z,7.25
2022-11-19T11:35:28.995Z,7.05
2022-11-19T11:37:56.253Z,8.65
2022-11-19T11:40:24.714Z,7.28
2022-11-19T11:42:53.788Z,6.72
2022-11-19T11:45:30.296Z,7.47
2022-11-19T11:47:58.734Z,7.55
2022-11-19T11:50:28.550Z,7.18
2022-11-19T11:52:57.899Z,9.32
2022-11-19T11:55:24.847Z,7.40
2022-11-19T11:57:58.479Z,10.80
2022-11-19T12:00:43.877Z,7.78
2022-11-19T12:03:14.965Z,7.53
2022-11-19T12:06:00.402Z,6.88
2022-11-19T12:08:55.029Z,6.85
2022-11-19T12:11:55.012Z,6.28
2022-11-19T12:14:27.235Z,6.90
2022-11-19T12:17:19.808Z,5.60
2022-11-19T12:19:46.750Z,8.13
2022-11-19T12:22:30.793Z,6.22
2022-11-19T12:25:28.128Z,6.07
2022-11-19T12:28:07.119Z,7.72
2022-11-19T12:30:49.958Z,7.47
2022-11-19T12:33:23.325Z,6.63
2022-11-19T12:36:15.165Z,6.82
2022-11-19T12:38:54.582Z,6.65
2022-11-19T12:41:40.084Z,6.47
2022-11-19T12:44:32.375Z,7.07
2022-11-19T12:47:40.695Z,7.75
2022-11-19T12:50:18.513Z,7.70
2022-11-19T12:53:14.155Z,7.15
2022-11-19T12:55:53.367Z,6.18
2022-11-19T12:58:41.114Z,6.55
2022-11-19T13:01:20.094Z,6.18
2022-11-19T13:04:06.186Z,6.20
2022-11-19T13:06:38.577Z,6.22
2022-11-19T13:09:16.658Z,7.28
2022-11-19T13:11:50.462Z,6.35
2022-11-19T13:14:50.696Z,6.22
2022-11-19T13:17:38.309Z,5.55
2022-11-19T13:20:23.298Z,6.63
2022-11-19T13:22:55.032Z,5.63
2022-11-19T13:25:40.209Z,6.88
2022-11-19T13:28:19.405Z,6.57
2022-11-19T13:30:50.250Z,7.40
2022-11-19T13:33:34.463Z,5.63
2022-11-19T13:36:25.717Z,6.20
2022-11-19T13:39:01.495Z,6.20
2022-11-19T13:41:59.252Z,6.88
2022-11-19T13:44:38.697Z,6.80
2022-11-19T13:47:13.056Z,7.28
2022-11-19T13:49:46.012Z,6.80
2022-11-19T13:52:26.997Z,7.18
2022-11-19T13:54:56.715Z,6.53
2022-11-19T13:57:50.134Z,6.47
2022-11-19T14:00:28.239Z,5.70
2022-11-19T14:03:19.910Z,6.68
2022-11-19T14:06:28.744Z,6.50
2022-11-19T14:09:15.814Z,7.13
2022-11-19T14:11:58.651Z,7.30
2022-11-19T14:15:06.099Z,7.40
2022-11-19T14:17:57.449Z,6.75
2022-11-19T14:21:04.041Z,6.40
2022-11-19T14:24:03.581Z,7.47
2022-11-19T14:27:01.784Z,7.85
2022-11-19T14:29:34.718Z,10.75
2022-11-19T14:32:05.593Z,7.35
2022-11-19T14:34:53.255Z,7.70
2022-11-19T14:37:31.331Z,6.03
2022-11-19T14:40:21.498Z,6.95
2022-11-19T14:43:19.059Z,7.47
2022-11-19T14:46:09.459Z,7.13
2022-11-19T14:48:39.701Z,8.35
2022-11-19T14:51:10.353Z,6.95
2022-11-19T14:53:47.294Z,8.88
2022-11-19T14:56:17.449Z,6.97
2022-11-19T14:59:14.638Z,7.72
2022-11-19T15:01:59.649Z,7.18
2022-11-19T15:05:03.991Z,7.47
2022-11-19T15:07:37.835Z,6.82
2022-11-19T15:10:10.118Z,7.53
2022-11-19T15:12:49.378Z,7.45
2022-11-19T15:15:24.824Z,8.40
2022-11-19T15:18:01.928Z,8.45
2022-11-19T15:20:36.514Z,7.38
2022-11-19T15:23:21.696Z,8.27
2022-11-19T15:26:27.033Z,7.60
2022-11-19T15:28:59.891Z,7.00
2022-11-19T15:31:45.382Z,6.90
2022-11-19T15:34:15.288Z,7.97
2022-11-19T15:36:47.421Z,7.78
2022-11-19T15:39:23.228Z,6.70
2022-11-19T15:42:02.664Z,8.27
2022-11-19T15:44:45.459Z,7.75
2022-11-19T15:47:21.916Z,9.35
2022-11-19T15:49:50.420Z,8.52
2022-11-19T15:52:30.920Z,7.15
2022-11-19T15:55:24.667Z,8.32
2022-11-19T15:57:56.212Z,9.60
2022-11-19T16:00:24.307Z,8.02
2022-11-19T16:02:53.326Z,9.85
2022-11-19T16:05:30.285Z,8.90
2022-11-19T16:08:00.233Z,9.07
2022-11-19T16:10:33.823Z,12.60
2022-11-19T16:13:39.990Z,7.40
2022-11-19T16:16:40.899Z,7.80
2022-11-19T16:19:07.966Z,9.13
2022-11-19T16:21:40.239Z,8.82
2022-11-19T16:24:31.975Z,9.07
2022-11-19T16:27:00.274Z,9.57
2022-11-19T16:29:27.915Z,8.68
2022-11-19T16:31:59.996Z,9.20
2022-11-19T16:34:31.408Z,8.48
2022-11-19T16:36:58.986Z,8.30
2022-11-19T16:39:31.911Z,8.05
2022-11-19T16:42:18.570Z,8.45
2022-11-19T16:44:57.303Z,7.82
2022-11-19T16:47:39.776Z,9.93
2022-11-19T16:50:25.444Z,8.60
2022-11-19T16:52:52.613Z,8.60
2022-11-19T16:55:20.059Z,8.95
2022-11-19T16:57:49.891Z,9.98
2022-11-19T17:00:25.514Z,10.50
2022-11-19T17:02:53.084Z,12.73
2022-11-19T17:05:25.877Z,7.93
2022-11-19T17:07:54.195Z,8.68
2022-11-19T17:10:31.871Z,8.18
2022-11-19T17:13:12.893Z,9.50
2022-11-19T17:15:48.668Z,8.50
2022-11-19T17:18:35.031Z,8.57
2022-11-19T17:21:21.767Z,9.23
2022-11-19T17:23:51.279Z,9.50
2022-11-19T17:26:26.747Z,9.77
2022-11-19T17:29:12.801Z,9.98
2022-11-19T17:31:48.116Z,9.48
2022-11-19T17:34:34.138Z,9.32
2022-11-19T17:37:01.215Z,10.10
2022-11-19T17:39:28.250Z,9.23
2022-11-19T17:42:15.308Z,8.90
2022-11-19T17:44:43.624Z,8.32
2022-11-19T17:47:22.855Z,9.55
2022-11-19T17:49:51.759Z,9.45
2022-11-19T17:52:26.936Z,8.95
2022-11-19T17:54:58.102Z,10.00
2022-11-19T17:57:25.822Z,9.55
2022-11-19T17:59:53.332Z,10.45
2022-11-19T18:02:21.359Z,9.93
2022-11-19T18:04:49.377Z,9.02
2022-11-19T18:07:16.780Z,8.00
2022-11-19T18:09:44.226Z,10.40
2022-11-19T18:12:15.880Z,11.40
2022-11-19T18:14:43.719Z,9.90
2022-11-19T18:17:15.861Z,9.63
2022-11-19T18:19:43.472Z,9.30
2022-11-19T18:22:18.543Z,9.15
2022-11-19T18:24:50.132Z,9.68
2022-11-19T18:27:18.410Z,10.95
2022-11-19T18:29:45.556Z,10.45
2022-11-19T18:32:16.907Z,9.45
2022-11-19T18:34:46.642Z,9.73
2022-11-19T18:37:15.221Z,9.15
2022-11-19T18:39:42.984Z,9.73
2022-11-19T18:42:14.255Z,9.13
2022-11-19T18:44:44.191Z,10.00
2022-11-19T18:47:14.473Z,9.43
2022-11-19T18:49:42.790Z,9.57
2022-11-19T18:52:15.049Z,10.57
2022-11-19T18:54:43.565Z,9.70
2022-11-19T18:57:12.913Z,8.82
2022-11-19T18:59:41.654Z,9.25
2022-11-19T19:02:10.985Z,9.40
2022-11-19T19:04:39.679Z,9.90
2022-11-19T19:07:07.548Z,9.20
2022-11-19T19:09:37.760Z,10.93
2022-11-19T19:12:17.997Z,9.00
2022-11-19T19:14:47.962Z,9.55
2022-11-19T19:17:16.554Z,9.02
2022-11-19T19:19:44.393Z,9.90
2022-11-19T19:22:12.223Z,8.80
2022-11-19T19:24:40.655Z,8.70
2022-11-19T19:27:08.580Z,8.75
2022-11-19T19:29:37.157Z,9.32
2022-11-19T19:32:05.051Z,9.23
2022-11-19T19:34:32.692Z,9.38
2022-11-19T19:37:00.436Z,9.18
2022-11-19T19:39:28.483Z,9.15
2022-11-19T19:41:57.136Z,8.82
2022-11-19T19:44:24.644Z,9.40
2022-11-19T19:46:52.284Z,9.20
2022-11-19T19:49:20.497Z,9.73
2022-11-19T19:51:48.462Z,10.13
2022-11-19T19:54:16.645Z,9.77
2022-11-19T19:56:55.247Z,9.45
2022-11-19T19:59:23.492Z,9.80
2022-11-19T20:01:52.378Z,10.43
2022-11-19T20:04:20.341Z,9.82
2022-11-19T20:06:48.540Z,10.10
2022-11-19T20:09:16.166Z,9.85
2022-11-19T20:11:43.614Z,10.05
2022-11-19T20:14:11.096Z,9.20
2022-11-19T20:16:45.350Z,8.95
2022-11-19T20:19:15.230Z,10.77
2022-11-19T20:21:43.388Z,12.45
2022-11-19T20:24:13.738Z,9.82
2022-11-19T20:26:43.281Z,10.45
2022-11-19T20:29:13.742Z,11.10
2022-11-19T20:31:45.563Z,13.60
2022-11-19T20:34:13.612Z,13.98
2022-11-19T20:36:41.934Z,10.13
2022-11-19T20:39:09.945Z,10.52
2022-11-19T20:41:55.813Z,9.75
2022-11-19T20:44:23.524Z,9.85
2022-11-19T20:47:00.123Z,11.52
2022-11-19T20:49:33.162Z,11.10
2022-11-19T20:52:00.840Z,10.57
2022-11-19T20:54:29.323Z,12.50
2022-11-19T20:56:59.837Z,10.40
2022-11-19T20:59:28.584Z,11.15
2022-11-19T21:01:57.947Z,9.52
2022-11-19T21:04:29.164Z,9.80
2022-11-19T21:06:56.660Z,10.18
2022-11-19T21:09:24.623Z,10.73
2022-11-19T21:11:52.364Z,10.75
2022-11-19T21:14:20.020Z,10.93
2022-11-19T21:16:47.452Z,10.00
2022-11-19T21:19:15.802Z,8.55
2022-11-19T21:21:44.280Z,9.60
2022-11-19T21:24:11.796Z,10.85
2022-11-19T21:26:39.079Z,10.18
2022-11-19T21:29:06.381Z,9.55
2022-11-19T21:31:39.839Z,9.82
2022-11-19T21:34:15.920Z,10.63
2022-11-19T21:36:44.518Z,9.48
2022-11-19T21:39:12.519Z,8.52
2022-11-19T21:41:39.679Z,10.20
2022-11-19T21:44:07.217Z,9.55
2022-11-19T21:46:35.149Z,9.90
2022-11-19T21:49:02.760Z,10.25
2022-11-19T21:51:30.164Z,9.23
2022-11-19T21:53:59.038Z,10.00
2022-11-19T21:56:27.682Z,9.23
2022-11-19T21:58:54.698Z,10.23
2022-11-19T22:01:22.004Z,9.98
2022-11-19T22:03:49.089Z,10.43
2022-11-19T22:06:16.139Z,8.50
2022-11-19T22:08:43.637Z,8.75
2022-11-19T22:11:30.620Z,9.23
2022-11-19T22:14:03.687Z,9.20
2022-11-19T22:16:32.831Z,9.50
2022-11-19T22:18:59.950Z,9.10
2022-11-19T22:21:27.739Z,8.98
2022-11-19T22:23:58.083Z,9.88
2022-11-19T22:26:26.344Z,8.80
2022-11-19T22:28:53.462Z,9.50
2022-11-19T22:31:20.480Z,8.77
2022-11-19T22:33:52.051Z,9.65
2022-11-19T22:36:21.589Z,8.48
2022-11-19T22:38:48.954Z,8.60
2022-11-19T22:41:18.394Z,8.82
2022-11-19T22:43:45.585Z,9.70
2022-11-19T22:46:13.784Z,9.20
2022-11-19T22:48:40.856Z,8.73
2022-11-19T22:51:11.353Z,8.98
2022-11-19T22:53:38.980Z,8.65
2022-11-19T22:56:08.642Z,9.48
2022-11-19T22:58:37.207Z,9.00
2022-11-19T23:01:05.662Z,8.60
2022-11-19T23:03:32.752Z,9.15
2022-11-19T23:05:59.760Z,9.40
2022-11-19T23:08:27.082Z,9.50
2022-11-19T23:10:59.199Z,9.30
2022-11-19T23:13:32.355Z,8.07
2022-11-19T23:16:07.141Z,9.30
2022-11-19T23:18:42.601Z,9.45
2022-11-19T23:21:12.346Z,8.57
2022-11-19T23:23:39.487Z,9.18
2022-11-19T23:26:07.961Z,9.27
2022-11-19T23:28:36.326Z,10.15
2022-11-19T23:31:13.623Z,9.57
2022-11-19T23:33:41.073Z,9.48
2022-11-19T23:36:13.788Z,9.05
2022-11-19T23:38:40.902Z,10.27
2022-11-19T23:41:10.630Z,9.85
2022-11-19T23:43:37.660Z,10.00
2022-11-19T23:46:10.675Z,9.95
2022-11-19T23:48:39.011Z,9.60
2022-11-19T23:51:13.340Z,9.20
2022-11-19T23:53:40.806Z,9.82
2022-11-19T23:56:08.326Z,10.40
2022-11-19T23:58:36.043Z,10.05
